sensor_id;sensor_type;location;lat;lon;timestamp;P1;durP1;ratioP1;P2;durP2;ratioP2
79363;SDS011;68832;53.112;17.980;2023-04-24T00:00:54;13.40;;;9.50;;
79363;SDS011;68832;53.112;17.980;2023-04-24T00:03:25;13.90;;;10.30;;
79363;SDS011;68832;53.112;17.980;2023-04-24T00:05:52;12.40;;;8.20;;
79363;SDS011;68832;53.112;17.980;2023-04-24T00:08:19;10.30;;;7.50;;
79363;SDS011;68832;53.112;17.980;2023-04-24T00:10:46;9.40;;;8.10;;
79363;SDS011;68832;53.112;17.980;2023-04-24T00:13:12;11.80;;;8.20;;
79363;SDS011;68832;53.112;17.980;2023-04-24T00:15:39;13.30;;;8.20;;
79363;SDS011;68832;53.112;17.980;2023-04-24T00:18:06;11.00;;;8.20;;
79363;SDS011;68832;53.112;17.980;2023-04-24T00:20:32;10.50;;;8.30;;
79363;SDS011;68832;53.112;17.980;2023-04-24T00:23:02;12.60;;;8.30;;
79363;SDS011;68832;53.112;17.980;2023-04-24T00:25:29;12.00;;;10.20;;
79363;SDS011;68832;53.112;17.980;2023-04-24T00:27:55;12.60;;;8.10;;
79363;SDS011;68832;53.112;17.980;2023-04-24T00:30:23;10.30;;;8.20;;
79363;SDS011;68832;53.112;17.980;2023-04-24T00:32:50;11.60;;;9.20;;
79363;SDS011;68832;53.112;17.980;2023-04-24T00:35:17;13.40;;;9.10;;
79363;SDS011;68832;53.112;17.980;2023-04-24T00:37:46;13.10;;;9.10;;
79363;SDS011;68832;53.112;17.980;2023-04-24T00:40:13;13.60;;;8.90;;
79363;SDS011;68832;53.112;17.980;2023-04-24T00:42:40;11.80;;;8.50;;
79363;SDS011;68832;53.112;17.980;2023-04-24T00:45:07;12.10;;;8.30;;
79363;SDS011;68832;53.112;17.980;2023-04-24T00:47:34;10.90;;;8.40;;
79363;SDS011;68832;53.112;17.980;2023-04-24T00:50:04;13.20;;;9.10;;
79363;SDS011;68832;53.112;17.980;2023-04-24T00:52:32;13.20;;;9.90;;
79363;SDS011;68832;53.112;17.980;2023-04-24T00:54:59;14.00;;;10.20;;
79363;SDS011;68832;53.112;17.980;2023-04-24T00:57:26;14.20;;;9.30;;
79363;SDS011;68832;53.112;17.980;2023-04-24T00:59:54;11.80;;;8.60;;
79363;SDS011;68832;53.112;17.980;2023-04-24T01:02:21;16.60;;;9.50;;
79363;SDS011;68832;53.112;17.980;2023-04-24T01:04:50;13.20;;;10.20;;
79363;SDS011;68832;53.112;17.980;2023-04-24T01:07:20;14.80;;;10.50;;
79363;SDS011;68832;53.112;17.980;2023-04-24T01:09:47;16.00;;;10.10;;
79363;SDS011;68832;53.112;17.980;2023-04-24T01:12:18;17.00;;;11.50;;
79363;SDS011;68832;53.112;17.980;2023-04-24T01:14:45;13.90;;;10.90;;
79363;SDS011;68832;53.112;17.980;2023-04-24T01:17:12;14.70;;;11.10;;
79363;SDS011;68832;53.112;17.980;2023-04-24T01:19:39;16.30;;;10.30;;
79363;SDS011;68832;53.112;17.980;2023-04-24T01:22:15;17.00;;;11.20;;
79363;SDS011;68832;53.112;17.980;2023-04-24T01:24:43;19.40;;;12.20;;
79363;SDS011;68832;53.112;17.980;2023-04-24T01:27:12;14.90;;;10.90;;
79363;SDS011;68832;53.112;17.980;2023-04-24T01:29:39;16.60;;;11.40;;
79363;SDS011;68832;53.112;17.980;2023-04-24T01:32:06;14.00;;;11.40;;
79363;SDS011;68832;53.112;17.980;2023-04-24T01:34:33;15.00;;;11.50;;
79363;SDS011;68832;53.112;17.980;2023-04-24T01:37:01;17.80;;;12.00;;
79363;SDS011;68832;53.112;17.980;2023-04-24T01:39:27;17.10;;;12.60;;
79363;SDS011;68832;53.112;17.980;2023-04-24T01:41:55;16.80;;;12.20;;
79363;SDS011;68832;53.112;17.980;2023-04-24T01:44:22;17.60;;;12.60;;
79363;SDS011;68832;53.112;17.980;2023-04-24T01:46:49;16.70;;;11.80;;
79363;SDS011;68832;53.112;17.980;2023-04-24T01:49:16;16.10;;;12.80;;
79363;SDS011;68832;53.112;17.980;2023-04-24T01:51:45;19.80;;;12.70;;
79363;SDS011;68832;53.112;17.980;2023-04-24T01:54:12;14.30;;;11.40;;
79363;SDS011;68832;53.112;17.980;2023-04-24T01:56:40;18.60;;;12.70;;
79363;SDS011;68832;53.112;17.980;2023-04-24T01:59:09;18.80;;;12.10;;
79363;SDS011;68832;53.112;17.980;2023-04-24T02:01:37;19.00;;;12.60;;
79363;SDS011;68832;53.112;17.980;2023-04-24T02:04:05;17.80;;;13.70;;
79363;SDS011;68832;53.112;17.980;2023-04-24T02:09:00;16.10;;;12.40;;
79363;SDS011;68832;53.112;17.980;2023-04-24T02:11:28;17.90;;;11.70;;
79363;SDS011;68832;53.112;17.980;2023-04-24T02:13:55;16.70;;;13.00;;
79363;SDS011;68832;53.112;17.980;2023-04-24T02:16:22;18.00;;;12.00;;
79363;SDS011;68832;53.112;17.980;2023-04-24T02:18:48;17.10;;;13.10;;
79363;SDS011;68832;53.112;17.980;2023-04-24T02:21:17;18.20;;;13.60;;
79363;SDS011;68832;53.112;17.980;2023-04-24T02:23:44;17.30;;;13.20;;
79363;SDS011;68832;53.112;17.980;2023-04-24T02:26:13;14.30;;;11.50;;
79363;SDS011;68832;53.112;17.980;2023-04-24T02:28:39;16.30;;;11.40;;
79363;SDS011;68832;53.112;17.980;2023-04-24T02:31:06;18.10;;;12.50;;
79363;SDS011;68832;53.112;17.980;2023-04-24T02:33:33;18.30;;;12.80;;
79363;SDS011;68832;53.112;17.980;2023-04-24T02:36:00;17.80;;;12.10;;
79363;SDS011;68832;53.112;17.980;2023-04-24T02:38:27;17.70;;;12.90;;
79363;SDS011;68832;53.112;17.980;2023-04-24T02:40:54;16.10;;;12.90;;
79363;SDS011;68832;53.112;17.980;2023-04-24T02:43:20;15.70;;;11.70;;
79363;SDS011;68832;53.112;17.980;2023-04-24T02:45:47;16.20;;;13.40;;
79363;SDS011;68832;53.112;17.980;2023-04-24T02:48:14;24.00;;;14.50;;
79363;SDS011;68832;53.112;17.980;2023-04-24T02:50:41;20.20;;;15.20;;
79363;SDS011;68832;53.112;17.980;2023-04-24T02:53:08;14.10;;;11.40;;
79363;SDS011;68832;53.112;17.980;2023-04-24T02:55:35;19.40;;;12.20;;
79363;SDS011;68832;53.112;17.980;2023-04-24T02:58:02;15.70;;;11.50;;
79363;SDS011;68832;53.112;17.980;2023-04-24T03:00:29;18.20;;;12.70;;
79363;SDS011;68832;53.112;17.980;2023-04-24T03:02:56;18.00;;;13.10;;
79363;SDS011;68832;53.112;17.980;2023-04-24T03:05:23;16.40;;;11.80;;
79363;SDS011;68832;53.112;17.980;2023-04-24T03:07:50;19.80;;;13.80;;
79363;SDS011;68832;53.112;17.980;2023-04-24T03:10:19;17.90;;;12.90;;
79363;SDS011;68832;53.112;17.980;2023-04-24T03:12:46;17.20;;;14.20;;
79363;SDS011;68832;53.112;17.980;2023-04-24T03:15:12;17.10;;;13.50;;
79363;SDS011;68832;53.112;17.980;2023-04-24T03:17:39;15.30;;;11.80;;
79363;SDS011;68832;53.112;17.980;2023-04-24T03:20:07;18.80;;;12.50;;
79363;SDS011;68832;53.112;17.980;2023-04-24T03:25:03;19.10;;;13.70;;
79363;SDS011;68832;53.112;17.980;2023-04-24T03:27:30;17.30;;;12.40;;
79363;SDS011;68832;53.112;17.980;2023-04-24T03:30:01;19.40;;;13.40;;
79363;SDS011;68832;53.112;17.980;2023-04-24T03:32:40;16.90;;;12.90;;
79363;SDS011;68832;53.112;17.980;2023-04-24T03:35:08;15.10;;;12.70;;
79363;SDS011;68832;53.112;17.980;2023-04-24T03:37:35;28.70;;;11.70;;
79363;SDS011;68832;53.112;17.980;2023-04-24T03:40:15;17.60;;;12.90;;
79363;SDS011;68832;53.112;17.980;2023-04-24T03:42:42;20.80;;;13.00;;
79363;SDS011;68832;53.112;17.980;2023-04-24T03:45:09;16.10;;;12.00;;
79363;SDS011;68832;53.112;17.980;2023-04-24T03:47:37;18.00;;;12.40;;
79363;SDS011;68832;53.112;17.980;2023-04-24T03:50:04;15.60;;;11.50;;
79363;SDS011;68832;53.112;17.980;2023-04-24T03:52:32;17.40;;;12.10;;
79363;SDS011;68832;53.112;17.980;2023-04-24T03:54:59;18.60;;;12.80;;
79363;SDS011;68832;53.112;17.980;2023-04-24T03:57:27;15.30;;;12.40;;
79363;SDS011;68832;53.112;17.980;2023-04-24T04:00:03;15.00;;;10.70;;
79363;SDS011;68832;53.112;17.980;2023-04-24T04:02:41;14.80;;;11.60;;
79363;SDS011;68832;53.112;17.980;2023-04-24T04:05:08;13.70;;;10.40;;
79363;SDS011;68832;53.112;17.980;2023-04-24T04:07:35;17.90;;;10.90;;
79363;SDS011;68832;53.112;17.980;2023-04-24T04:10:03;18.30;;;13.10;;
79363;SDS011;68832;53.112;17.980;2023-04-24T04:12:30;14.00;;;11.00;;
79363;SDS011;68832;53.112;17.980;2023-04-24T04:14:58;14.10;;;11.00;;
79363;SDS011;68832;53.112;17.980;2023-04-24T04:17:26;15.50;;;11.00;;
79363;SDS011;68832;53.112;17.980;2023-04-24T04:19:53;13.90;;;11.20;;
79363;SDS011;68832;53.112;17.980;2023-04-24T04:22:20;15.60;;;11.00;;
79363;SDS011;68832;53.112;17.980;2023-04-24T04:24:49;20.30;;;10.70;;
79363;SDS011;68832;53.112;17.980;2023-04-24T04:27:19;13.30;;;9.90;;
79363;SDS011;68832;53.112;17.980;2023-04-24T04:30:00;14.50;;;10.60;;
79363;SDS011;68832;53.112;17.980;2023-04-24T04:32:34;15.30;;;12.10;;
79363;SDS011;68832;53.112;17.980;2023-04-24T04:35:02;17.20;;;12.30;;
79363;SDS011;68832;53.112;17.980;2023-04-24T04:37:31;15.30;;;11.80;;
79363;SDS011;68832;53.112;17.980;2023-04-24T04:40:19;62.30;;;40.80;;
79363;SDS011;68832;53.112;17.980;2023-04-24T04:42:50;14.70;;;11.30;;
79363;SDS011;68832;53.112;17.980;2023-04-24T04:45:19;15.30;;;10.80;;
79363;SDS011;68832;53.112;17.980;2023-04-24T04:48:06;20.20;;;12.50;;
79363;SDS011;68832;53.112;17.980;2023-04-24T04:50:36;17.40;;;11.60;;
79363;SDS011;68832;53.112;17.980;2023-04-24T04:53:05;14.40;;;11.40;;
79363;SDS011;68832;53.112;17.980;2023-04-24T04:55:35;14.70;;;10.00;;
79363;SDS011;68832;53.112;17.980;2023-04-24T04:58:24;14.20;;;10.50;;
79363;SDS011;68832;53.112;17.980;2023-04-24T05:00:54;12.90;;;11.20;;
79363;SDS011;68832;53.112;17.980;2023-04-24T05:03:33;18.10;;;11.80;;
79363;SDS011;68832;53.112;17.980;2023-04-24T05:06:05;13.40;;;10.80;;
79363;SDS011;68832;53.112;17.980;2023-04-24T05:08:34;14.90;;;9.90;;
79363;SDS011;68832;53.112;17.980;2023-04-24T05:11:01;14.80;;;10.80;;
79363;SDS011;68832;53.112;17.980;2023-04-24T05:13:29;16.30;;;10.80;;
79363;SDS011;68832;53.112;17.980;2023-04-24T05:15:57;13.20;;;10.00;;
79363;SDS011;68832;53.112;17.980;2023-04-24T05:18:24;16.00;;;11.60;;
79363;SDS011;68832;53.112;17.980;2023-04-24T05:20:51;14.10;;;9.60;;
79363;SDS011;68832;53.112;17.980;2023-04-24T05:23:18;14.10;;;10.30;;
79363;SDS011;68832;53.112;17.980;2023-04-24T05:25:45;17.60;;;11.80;;
79363;SDS011;68832;53.112;17.980;2023-04-24T05:28:14;17.70;;;12.50;;
79363;SDS011;68832;53.112;17.980;2023-04-24T05:30:42;15.90;;;10.90;;
79363;SDS011;68832;53.112;17.980;2023-04-24T05:33:09;18.00;;;13.20;;
79363;SDS011;68832;53.112;17.980;2023-04-24T05:35:36;16.30;;;11.40;;
79363;SDS011;68832;53.112;17.980;2023-04-24T05:38:03;13.50;;;10.40;;
79363;SDS011;68832;53.112;17.980;2023-04-24T05:40:30;22.10;;;14.30;;
79363;SDS011;68832;53.112;17.980;2023-04-24T05:42:56;17.60;;;11.90;;
79363;SDS011;68832;53.112;17.980;2023-04-24T05:45:24;14.70;;;11.70;;
79363;SDS011;68832;53.112;17.980;2023-04-24T05:47:51;18.00;;;12.50;;
79363;SDS011;68832;53.112;17.980;2023-04-24T05:50:19;20.00;;;12.30;;
79363;SDS011;68832;53.112;17.980;2023-04-24T05:52:47;17.00;;;11.70;;
79363;SDS011;68832;53.112;17.980;2023-04-24T05:55:24;11.90;;;9.10;;
79363;SDS011;68832;53.112;17.980;2023-04-24T05:57:52;14.50;;;10.10;;
79363;SDS011;68832;53.112;17.980;2023-04-24T06:00:19;16.80;;;12.90;;
79363;SDS011;68832;53.112;17.980;2023-04-24T06:02:49;19.80;;;12.60;;
79363;SDS011;68832;53.112;17.980;2023-04-24T06:05:16;13.20;;;10.10;;
79363;SDS011;68832;53.112;17.980;2023-04-24T06:07:44;17.10;;;12.50;;
79363;SDS011;68832;53.112;17.980;2023-04-24T06:10:11;18.10;;;12.40;;
79363;SDS011;68832;53.112;17.980;2023-04-24T06:12:41;15.50;;;12.30;;
79363;SDS011;68832;53.112;17.980;2023-04-24T06:15:13;18.90;;;13.00;;
79363;SDS011;68832;53.112;17.980;2023-04-24T06:20:39;17.30;;;11.20;;
79363;SDS011;68832;53.112;17.980;2023-04-24T06:23:08;19.50;;;12.30;;
79363;SDS011;68832;53.112;17.980;2023-04-24T06:25:35;15.00;;;10.90;;
79363;SDS011;68832;53.112;17.980;2023-04-24T06:28:02;18.10;;;12.90;;
79363;SDS011;68832;53.112;17.980;2023-04-24T06:30:30;14.00;;;10.70;;
79363;SDS011;68832;53.112;17.980;2023-04-24T06:32:57;16.30;;;12.30;;
79363;SDS011;68832;53.112;17.980;2023-04-24T06:35:24;14.30;;;9.10;;
79363;SDS011;68832;53.112;17.980;2023-04-24T06:37:51;13.80;;;10.80;;
79363;SDS011;68832;53.112;17.980;2023-04-24T06:40:18;13.40;;;8.40;;
79363;SDS011;68832;53.112;17.980;2023-04-24T06:42:47;12.90;;;9.80;;
79363;SDS011;68832;53.112;17.980;2023-04-24T06:45:14;13.50;;;9.40;;
79363;SDS011;68832;53.112;17.980;2023-04-24T06:47:41;15.10;;;11.60;;
79363;SDS011;68832;53.112;17.980;2023-04-24T06:50:08;13.50;;;10.50;;
79363;SDS011;68832;53.112;17.980;2023-04-24T06:52:36;16.70;;;11.20;;
79363;SDS011;68832;53.112;17.980;2023-04-24T06:55:03;15.40;;;9.80;;
79363;SDS011;68832;53.112;17.980;2023-04-24T06:57:30;11.40;;;9.10;;
79363;SDS011;68832;53.112;17.980;2023-04-24T06:59:58;13.50;;;10.10;;
79363;SDS011;68832;53.112;17.980;2023-04-24T07:02:25;14.50;;;9.40;;
79363;SDS011;68832;53.112;17.980;2023-04-24T07:04:52;13.00;;;9.90;;
79363;SDS011;68832;53.112;17.980;2023-04-24T07:07:19;15.20;;;10.00;;
79363;SDS011;68832;53.112;17.980;2023-04-24T07:09:46;11.60;;;8.60;;
79363;SDS011;68832;53.112;17.980;2023-04-24T07:12:12;12.00;;;8.60;;
79363;SDS011;68832;53.112;17.980;2023-04-24T07:14:40;12.60;;;9.60;;
79363;SDS011;68832;53.112;17.980;2023-04-24T07:17:07;11.60;;;8.80;;
79363;SDS011;68832;53.112;17.980;2023-04-24T07:19:34;10.30;;;7.80;;
79363;SDS011;68832;53.112;17.980;2023-04-24T07:22:02;13.70;;;7.90;;
79363;SDS011;68832;53.112;17.980;2023-04-24T07:24:30;11.60;;;8.60;;
79363;SDS011;68832;53.112;17.980;2023-04-24T07:26:58;8.60;;;6.20;;
79363;SDS011;68832;53.112;17.980;2023-04-24T07:29:27;10.40;;;8.40;;
79363;SDS011;68832;53.112;17.980;2023-04-24T07:31:54;12.80;;;8.40;;
79363;SDS011;68832;53.112;17.980;2023-04-24T07:34:21;9.70;;;5.80;;
79363;SDS011;68832;53.112;17.980;2023-04-24T07:36:48;9.30;;;6.80;;
79363;SDS011;68832;53.112;17.980;2023-04-24T07:39:14;8.50;;;6.80;;
79363;SDS011;68832;53.112;17.980;2023-04-24T07:41:41;11.60;;;8.00;;
79363;SDS011;68832;53.112;17.980;2023-04-24T07:44:08;10.00;;;7.10;;
79363;SDS011;68832;53.112;17.980;2023-04-24T07:46:35;9.80;;;5.10;;
79363;SDS011;68832;53.112;17.980;2023-04-24T07:49:02;12.90;;;7.60;;
79363;SDS011;68832;53.112;17.980;2023-04-24T07:51:29;9.90;;;8.20;;
79363;SDS011;68832;53.112;17.980;2023-04-24T07:53:57;10.20;;;8.60;;
79363;SDS011;68832;53.112;17.980;2023-04-24T07:56:24;9.80;;;7.30;;
79363;SDS011;68832;53.112;17.980;2023-04-24T07:58:51;9.20;;;6.40;;
79363;SDS011;68832;53.112;17.980;2023-04-24T08:01:18;9.40;;;6.90;;
79363;SDS011;68832;53.112;17.980;2023-04-24T08:03:45;12.10;;;7.10;;
79363;SDS011;68832;53.112;17.980;2023-04-24T08:06:11;11.20;;;6.90;;
79363;SDS011;68832;53.112;17.980;2023-04-24T08:08:38;6.90;;;4.70;;
79363;SDS011;68832;53.112;17.980;2023-04-24T08:11:05;11.60;;;7.30;;
79363;SDS011;68832;53.112;17.980;2023-04-24T08:13:31;7.90;;;6.10;;
79363;SDS011;68832;53.112;17.980;2023-04-24T08:15:58;16.20;;;10.80;;
79363;SDS011;68832;53.112;17.980;2023-04-24T08:18:25;12.80;;;6.00;;
79363;SDS011;68832;53.112;17.980;2023-04-24T08:20:52;10.50;;;5.30;;
79363;SDS011;68832;53.112;17.980;2023-04-24T08:23:19;5.30;;;3.30;;
79363;SDS011;68832;53.112;17.980;2023-04-24T08:25:46;9.30;;;6.20;;
79363;SDS011;68832;53.112;17.980;2023-04-24T08:28:13;6.90;;;5.10;;
79363;SDS011;68832;53.112;17.980;2023-04-24T08:30:46;9.50;;;6.30;;
79363;SDS011;68832;53.112;17.980;2023-04-24T08:33:14;7.60;;;5.40;;
79363;SDS011;68832;53.112;17.980;2023-04-24T08:35:41;7.60;;;5.60;;
79363;SDS011;68832;53.112;17.980;2023-04-24T08:38:08;8.30;;;4.70;;
79363;SDS011;68832;53.112;17.980;2023-04-24T08:40:35;10.80;;;4.30;;
79363;SDS011;68832;53.112;17.980;2023-04-24T08:43:03;7.70;;;4.50;;
79363;SDS011;68832;53.112;17.980;2023-04-24T08:45:30;5.10;;;4.40;;
79363;SDS011;68832;53.112;17.980;2023-04-24T08:47:59;7.10;;;5.60;;
79363;SDS011;68832;53.112;17.980;2023-04-24T08:50:26;7.10;;;5.40;;
79363;SDS011;68832;53.112;17.980;2023-04-24T08:52:53;7.80;;;4.80;;
79363;SDS011;68832;53.112;17.980;2023-04-24T08:55:20;7.60;;;5.70;;
79363;SDS011;68832;53.112;17.980;2023-04-24T08:57:51;8.40;;;5.80;;
79363;SDS011;68832;53.112;17.980;2023-04-24T09:00:22;8.30;;;5.90;;
79363;SDS011;68832;53.112;17.980;2023-04-24T09:02:49;9.60;;;5.80;;
79363;SDS011;68832;53.112;17.980;2023-04-24T09:05:16;7.70;;;6.00;;
79363;SDS011;68832;53.112;17.980;2023-04-24T09:07:45;9.60;;;6.20;;
79363;SDS011;68832;53.112;17.980;2023-04-24T09:10:16;7.80;;;6.00;;
79363;SDS011;68832;53.112;17.980;2023-04-24T09:12:43;7.20;;;4.00;;
79363;SDS011;68832;53.112;17.980;2023-04-24T09:15:10;8.30;;;5.40;;
79363;SDS011;68832;53.112;17.980;2023-04-24T09:17:38;6.80;;;5.90;;
79363;SDS011;68832;53.112;17.980;2023-04-24T09:20:05;6.10;;;4.30;;
79363;SDS011;68832;53.112;17.980;2023-04-24T09:22:33;10.00;;;6.10;;
79363;SDS011;68832;53.112;17.980;2023-04-24T09:25:04;7.90;;;5.00;;
79363;SDS011;68832;53.112;17.980;2023-04-24T09:27:35;6.70;;;4.30;;
79363;SDS011;68832;53.112;17.980;2023-04-24T09:30:02;10.30;;;4.90;;
79363;SDS011;68832;53.112;17.980;2023-04-24T09:32:30;7.70;;;5.50;;
79363;SDS011;68832;53.112;17.980;2023-04-24T09:35:05;8.10;;;5.70;;
79363;SDS011;68832;53.112;17.980;2023-04-24T09:37:38;16.10;;;6.20;;
79363;SDS011;68832;53.112;17.980;2023-04-24T09:42:51;7.40;;;5.40;;
79363;SDS011;68832;53.112;17.980;2023-04-24T09:45:19;9.50;;;6.90;;
79363;SDS011;68832;53.112;17.980;2023-04-24T09:47:47;7.50;;;5.10;;
79363;SDS011;68832;53.112;17.980;2023-04-24T09:50:17;9.80;;;6.40;;
79363;SDS011;68832;53.112;17.980;2023-04-24T09:52:55;8.70;;;5.70;;
79363;SDS011;68832;53.112;17.980;2023-04-24T09:55:24;10.00;;;6.80;;
79363;SDS011;68832;53.112;17.980;2023-04-24T10:02:49;7.00;;;4.10;;
79363;SDS011;68832;53.112;17.980;2023-04-24T10:05:17;8.90;;;6.30;;
79363;SDS011;68832;53.112;17.980;2023-04-24T10:07:44;7.10;;;5.40;;
79363;SDS011;68832;53.112;17.980;2023-04-24T10:10:11;6.60;;;5.70;;
79363;SDS011;68832;53.112;17.980;2023-04-24T10:12:38;9.00;;;5.40;;
79363;SDS011;68832;53.112;17.980;2023-04-24T10:15:06;7.80;;;5.40;;
79363;SDS011;68832;53.112;17.980;2023-04-24T10:17:33;8.20;;;6.10;;
79363;SDS011;68832;53.112;17.980;2023-04-24T10:20:00;7.10;;;5.60;;
79363;SDS011;68832;53.112;17.980;2023-04-24T10:22:29;8.00;;;6.30;;
79363;SDS011;68832;53.112;17.980;2023-04-24T10:24:56;6.30;;;5.60;;
79363;SDS011;68832;53.112;17.980;2023-04-24T10:27:23;10.80;;;6.40;;
79363;SDS011;68832;53.112;17.980;2023-04-24T10:29:51;7.20;;;5.80;;
79363;SDS011;68832;53.112;17.980;2023-04-24T10:32:19;9.20;;;5.70;;
79363;SDS011;68832;53.112;17.980;2023-04-24T10:34:46;9.60;;;5.00;;
79363;SDS011;68832;53.112;17.980;2023-04-24T10:37:14;8.00;;;5.60;;
79363;SDS011;68832;53.112;17.980;2023-04-24T10:39:41;9.60;;;4.70;;
79363;SDS011;68832;53.112;17.980;2023-04-24T10:42:15;6.20;;;4.60;;
79363;SDS011;68832;53.112;17.980;2023-04-24T10:44:42;6.30;;;5.10;;
79363;SDS011;68832;53.112;17.980;2023-04-24T10:47:13;8.80;;;5.60;;
79363;SDS011;68832;53.112;17.980;2023-04-24T10:49:43;5.60;;;4.90;;
79363;SDS011;68832;53.112;17.980;2023-04-24T10:52:10;6.50;;;3.30;;
79363;SDS011;68832;53.112;17.980;2023-04-24T10:59:50;9.20;;;5.00;;
79363;SDS011;68832;53.112;17.980;2023-04-24T11:02:19;7.50;;;4.00;;
79363;SDS011;68832;53.112;17.980;2023-04-24T11:05:05;5.40;;;4.30;;
79363;SDS011;68832;53.112;17.980;2023-04-24T11:10:39;6.60;;;4.60;;
79363;SDS011;68832;53.112;17.980;2023-04-24T11:13:06;6.50;;;5.20;;
79363;SDS011;68832;53.112;17.980;2023-04-24T11:15:33;7.20;;;5.70;;
79363;SDS011;68832;53.112;17.980;2023-04-24T11:18:00;8.10;;;5.20;;
79363;SDS011;68832;53.112;17.980;2023-04-24T11:20:27;9.10;;;7.90;;
79363;SDS011;68832;53.112;17.980;2023-04-24T11:22:54;10.30;;;9.30;;
79363;SDS011;68832;53.112;17.980;2023-04-24T11:25:21;9.40;;;7.80;;
79363;SDS011;68832;53.112;17.980;2023-04-24T11:28:02;10.30;;;7.70;;
79363;SDS011;68832;53.112;17.980;2023-04-24T11:30:31;10.10;;;7.20;;
79363;SDS011;68832;53.112;17.980;2023-04-24T11:33:03;8.20;;;7.30;;
79363;SDS011;68832;53.112;17.980;2023-04-24T11:35:34;8.60;;;7.70;;
79363;SDS011;68832;53.112;17.980;2023-04-24T11:38:05;9.70;;;7.10;;
79363;SDS011;68832;53.112;17.980;2023-04-24T11:43:00;9.00;;;7.90;;
79363;SDS011;68832;53.112;17.980;2023-04-24T11:45:28;7.50;;;6.80;;
79363;SDS011;68832;53.112;17.980;2023-04-24T11:47:56;10.10;;;8.60;;
79363;SDS011;68832;53.112;17.980;2023-04-24T11:50:24;10.70;;;7.10;;
79363;SDS011;68832;53.112;17.980;2023-04-24T11:52:55;10.30;;;6.90;;
79363;SDS011;68832;53.112;17.980;2023-04-24T11:55:24;8.80;;;6.00;;
79363;SDS011;68832;53.112;17.980;2023-04-24T11:57:53;5.60;;;5.00;;
79363;SDS011;68832;53.112;17.980;2023-04-24T12:03:02;8.60;;;6.10;;
79363;SDS011;68832;53.112;17.980;2023-04-24T12:05:31;7.20;;;5.60;;
79363;SDS011;68832;53.112;17.980;2023-04-24T12:07:59;5.90;;;5.10;;
79363;SDS011;68832;53.112;17.980;2023-04-24T12:10:26;5.10;;;3.40;;
79363;SDS011;68832;53.112;17.980;2023-04-24T12:12:56;11.10;;;5.30;;
79363;SDS011;68832;53.112;17.980;2023-04-24T12:15:23;6.00;;;4.40;;
79363;SDS011;68832;53.112;17.980;2023-04-24T12:17:51;8.00;;;4.50;;
79363;SDS011;68832;53.112;17.980;2023-04-24T12:20:23;7.10;;;5.00;;
79363;SDS011;68832;53.112;17.980;2023-04-24T12:22:58;7.20;;;4.90;;
79363;SDS011;68832;53.112;17.980;2023-04-24T12:25:27;6.20;;;4.50;;
79363;SDS011;68832;53.112;17.980;2023-04-24T12:28:16;8.80;;;6.20;;
79363;SDS011;68832;53.112;17.980;2023-04-24T12:30:44;17.70;;;5.90;;
79363;SDS011;68832;53.112;17.980;2023-04-24T12:33:17;7.00;;;6.10;;
79363;SDS011;68832;53.112;17.980;2023-04-24T12:35:47;6.60;;;5.60;;
79363;SDS011;68832;53.112;17.980;2023-04-24T12:38:15;7.50;;;5.10;;
79363;SDS011;68832;53.112;17.980;2023-04-24T12:40:42;7.40;;;6.40;;
79363;SDS011;68832;53.112;17.980;2023-04-24T12:43:13;12.00;;;6.90;;
79363;SDS011;68832;53.112;17.980;2023-04-24T12:45:42;8.00;;;5.90;;
79363;SDS011;68832;53.112;17.980;2023-04-24T12:48:08;9.30;;;6.70;;
79363;SDS011;68832;53.112;17.980;2023-04-24T12:50:35;8.70;;;6.40;;
79363;SDS011;68832;53.112;17.980;2023-04-24T12:53:02;10.10;;;7.90;;
79363;SDS011;68832;53.112;17.980;2023-04-24T12:55:29;10.30;;;7.70;;
79363;SDS011;68832;53.112;17.980;2023-04-24T12:57:56;12.30;;;9.20;;
79363;SDS011;68832;53.112;17.980;2023-04-24T13:00:22;12.70;;;7.60;;
79363;SDS011;68832;53.112;17.980;2023-04-24T13:02:49;10.30;;;7.30;;
79363;SDS011;68832;53.112;17.980;2023-04-24T13:05:16;9.30;;;7.20;;
79363;SDS011;68832;53.112;17.980;2023-04-24T13:07:43;10.20;;;7.70;;
79363;SDS011;68832;53.112;17.980;2023-04-24T13:10:10;8.90;;;8.00;;
79363;SDS011;68832;53.112;17.980;2023-04-24T13:12:37;10.20;;;7.30;;
79363;SDS011;68832;53.112;17.980;2023-04-24T13:15:05;10.00;;;6.90;;
79363;SDS011;68832;53.112;17.980;2023-04-24T13:17:32;9.00;;;6.70;;
79363;SDS011;68832;53.112;17.980;2023-04-24T13:19:59;7.70;;;6.70;;
79363;SDS011;68832;53.112;17.980;2023-04-24T13:22:26;7.40;;;5.30;;
79363;SDS011;68832;53.112;17.980;2023-04-24T13:24:53;8.70;;;6.50;;
79363;SDS011;68832;53.112;17.980;2023-04-24T13:27:20;8.50;;;6.80;;
79363;SDS011;68832;53.112;17.980;2023-04-24T13:29:47;8.60;;;5.70;;
79363;SDS011;68832;53.112;17.980;2023-04-24T13:32:14;8.30;;;5.20;;
79363;SDS011;68832;53.112;17.980;2023-04-24T13:34:41;7.10;;;5.70;;
79363;SDS011;68832;53.112;17.980;2023-04-24T13:37:08;10.50;;;6.60;;
79363;SDS011;68832;53.112;17.980;2023-04-24T13:39:34;8.80;;;6.00;;
79363;SDS011;68832;53.112;17.980;2023-04-24T13:42:02;7.10;;;5.60;;
79363;SDS011;68832;53.112;17.980;2023-04-24T13:44:29;6.60;;;5.20;;
79363;SDS011;68832;53.112;17.980;2023-04-24T13:46:57;14.10;;;4.80;;
79363;SDS011;68832;53.112;17.980;2023-04-24T13:49:24;5.00;;;3.50;;
79363;SDS011;68832;53.112;17.980;2023-04-24T13:51:53;5.90;;;4.10;;
79363;SDS011;68832;53.112;17.980;2023-04-24T13:54:21;5.90;;;5.30;;
79363;SDS011;68832;53.112;17.980;2023-04-24T13:56:49;7.40;;;6.00;;
79363;SDS011;68832;53.112;17.980;2023-04-24T13:59:17;8.70;;;4.80;;
79363;SDS011;68832;53.112;17.980;2023-04-24T14:01:44;8.50;;;5.80;;
79363;SDS011;68832;53.112;17.980;2023-04-24T14:04:11;7.50;;;6.70;;
79363;SDS011;68832;53.112;17.980;2023-04-24T14:06:38;7.10;;;6.20;;
79363;SDS011;68832;53.112;17.980;2023-04-24T14:09:05;8.20;;;6.90;;
79363;SDS011;68832;53.112;17.980;2023-04-24T14:11:33;7.30;;;6.40;;
79363;SDS011;68832;53.112;17.980;2023-04-24T14:14:00;6.40;;;4.90;;
79363;SDS011;68832;53.112;17.980;2023-04-24T14:16:27;7.30;;;5.90;;
79363;SDS011;68832;53.112;17.980;2023-04-24T14:18:54;8.40;;;5.80;;
79363;SDS011;68832;53.112;17.980;2023-04-24T14:21:21;8.20;;;5.50;;
79363;SDS011;68832;53.112;17.980;2023-04-24T14:23:48;9.90;;;6.20;;
79363;SDS011;68832;53.112;17.980;2023-04-24T14:26:15;8.10;;;6.60;;
79363;SDS011;68832;53.112;17.980;2023-04-24T14:28:41;7.30;;;5.00;;
79363;SDS011;68832;53.112;17.980;2023-04-24T14:31:08;6.60;;;5.10;;
79363;SDS011;68832;53.112;17.980;2023-04-24T14:33:36;7.70;;;5.00;;
79363;SDS011;68832;53.112;17.980;2023-04-24T14:36:02;6.10;;;4.60;;
79363;SDS011;68832;53.112;17.980;2023-04-24T14:38:31;6.00;;;4.90;;
79363;SDS011;68832;53.112;17.980;2023-04-24T14:40:59;6.00;;;4.10;;
79363;SDS011;68832;53.112;17.980;2023-04-24T14:43:25;9.70;;;4.60;;
79363;SDS011;68832;53.112;17.980;2023-04-24T14:45:52;5.10;;;3.50;;
79363;SDS011;68832;53.112;17.980;2023-04-24T14:48:19;4.20;;;3.70;;
79363;SDS011;68832;53.112;17.980;2023-04-24T14:50:45;4.50;;;3.30;;
79363;SDS011;68832;53.112;17.980;2023-04-24T14:53:13;5.10;;;4.10;;
79363;SDS011;68832;53.112;17.980;2023-04-24T14:55:40;6.90;;;4.20;;